createdAt,value
2022-09-05T00:00:15.619Z,19.40
2022-09-05T00:03:20.634Z,19.30
2022-09-05T00:06:24.209Z,19.30
2022-09-05T00:09:21.492Z,19.30
2022-09-05T00:11:58.378Z,19.30
2022-09-05T00:15:16.765Z,19.20
2022-09-05T00:22:42.392Z,19.10
2022-09-05T00:24:22.001Z,19.10
2022-09-05T00:24:54.713Z,19.10
2022-09-05T00:27:43.838Z,19.10
2022-09-05T00:31:51.819Z,19.00
2022-09-05T00:33:44.059Z,19.00
2022-09-05T00:36:55.277Z,18.90
2022-09-05T00:39:36.115Z,18.90
2022-09-05T00:42:15.420Z,18.90
2022-09-05T00:45:01.965Z,18.80
2022-09-05T00:48:03.164Z,18.80
2022-09-05T00:50:40.658Z,18.80
2022-09-05T00:53:26.117Z,18.70
2022-09-05T00:56:17.234Z,18.70
2022-09-05T00:59:27.130Z,18.70
2022-09-05T01:02:16.707Z,18.70
2022-09-05T01:04:59.428Z,18.60
2022-09-05T01:07:56.967Z,18.60
2022-09-05T01:10:57.062Z,18.50
2022-09-05T01:14:22.004Z,18.50
2022-09-05T01:17:26.543Z,18.50
2022-09-05T01:20:21.250Z,18.40
2022-09-05T01:23:29.223Z,18.40
2022-09-05T01:26:50.157Z,18.30
2022-09-05T01:29:34.135Z,18.30
2022-09-05T01:32:25.081Z,18.30
2022-09-05T01:35:26.126Z,18.20
2022-09-05T01:38:18.607Z,18.20
2022-09-05T01:41:31.750Z,18.20
2022-09-05T01:44:26.307Z,18.10
2022-09-05T01:47:31.089Z,18.10
2022-09-05T01:50:17.127Z,18.10
2022-09-05T01:53:33.230Z,18.00
2022-09-05T01:56:34.250Z,18.00
2022-09-05T01:59:50.938Z,17.90
2022-09-05T02:03:13.512Z,17.90
2022-09-05T02:05:57.115Z,17.90
2022-09-05T02:09:07.781Z,17.80
2022-09-05T02:11:52.729Z,17.80
2022-09-05T02:15:02.074Z,17.70
2022-09-05T02:17:51.103Z,17.70
2022-09-05T02:20:46.153Z,17.70
2022-09-05T02:23:42.758Z,17.70
2022-09-05T02:26:27.027Z,17.70
2022-09-05T02:29:10.916Z,17.60
2022-09-05T02:31:55.458Z,17.60
2022-09-05T02:34:41.349Z,17.60
2022-09-05T02:40:32.611Z,17.50
2022-09-05T02:45:11.753Z,17.50
2022-09-05T02:45:13.704Z,17.40
2022-09-05T02:47:37.741Z,17.40
2022-09-05T02:57:29.200Z,17.40
2022-09-05T02:57:34.045Z,17.30
2022-09-05T02:57:42.486Z,17.30
2022-09-05T03:00:13.579Z,17.30
2022-09-05T03:03:18.730Z,17.20
2022-09-05T03:06:04.482Z,17.20
2022-09-05T03:09:28.296Z,17.20
2022-09-05T03:12:28.846Z,17.10
2022-09-05T03:15:43.278Z,17.10
2022-09-05T03:19:07.950Z,17.10
2022-09-05T03:22:41.076Z,17.00
2022-09-05T03:25:31.190Z,17.00
2022-09-05T03:29:00.655Z,17.00
2022-09-05T03:31:56.772Z,17.00
2022-09-05T03:34:48.358Z,16.90
2022-09-05T03:37:17.898Z,16.90
2022-09-05T03:40:15.675Z,16.90
2022-09-05T03:43:23.030Z,16.80
2022-09-05T03:46:18.053Z,16.80
2022-09-05T03:50:09.467Z,16.80
2022-09-05T03:57:08.044Z,16.70
2022-09-05T03:57:27.198Z,16.70
2022-09-05T04:00:02.492Z,16.60
2022-09-05T04:08:08.970Z,16.70
2022-09-05T04:08:14.407Z,16.60
2022-09-05T04:09:09.651Z,16.60
2022-09-05T04:12:09.701Z,16.60
2022-09-05T04:14:58.307Z,16.50
2022-09-05T04:18:03.765Z,16.50
2022-09-05T04:21:01.804Z,16.50
2022-09-05T04:24:09.584Z,16.40
2022-09-05T04:27:20.953Z,16.40
2022-09-05T04:30:00.363Z,16.40
2022-09-05T04:33:08.229Z,16.40
2022-09-05T04:36:17.869Z,16.30
2022-09-05T04:38:46.236Z,16.30
2022-09-05T04:41:16.891Z,16.30
2022-09-05T04:44:10.856Z,16.30
2022-09-05T04:46:48.758Z,16.30
2022-09-05T04:49:33.114Z,16.20
2022-09-05T04:52:09.750Z,16.20
2022-09-05T04:55:14.050Z,16.20
2022-09-05T04:58:07.055Z,16.20
2022-09-05T05:05:59.953Z,16.20
2022-09-05T05:06:09.090Z,16.20
2022-09-05T05:06:42.274Z,16.20
2022-09-05T05:09:38.136Z,16.10
2022-09-05T05:17:40.367Z,16.10
2022-09-05T05:18:06.383Z,16.10
2022-09-05T05:19:03.012Z,16.10
2022-09-05T05:21:33.300Z,16.10
2022-09-05T05:24:02.057Z,16.10
2022-09-05T05:26:42.570Z,16.10
2022-09-05T05:29:24.201Z,16.20
2022-09-05T05:32:01.000Z,16.20
2022-09-05T05:34:41.287Z,16.20
2022-09-05T05:37:43.362Z,16.20
2022-09-05T05:40:17.317Z,16.20
2022-09-05T05:42:46.715Z,16.30
2022-09-05T05:45:19.267Z,16.30
2022-09-05T05:47:54.419Z,16.30
2022-09-05T05:51:03.201Z,16.30
2022-09-05T05:53:53.694Z,16.40
2022-09-05T05:56:57.600Z,16.50
2022-09-05T05:59:32.399Z,16.50
2022-09-05T06:02:17.384Z,16.60
2022-09-05T06:05:24.079Z,16.60
2022-09-05T06:12:53.585Z,16.60
2022-09-05T06:15:05.252Z,16.70
2022-09-05T06:15:36.972Z,16.80
2022-09-05T06:18:57.505Z,16.90
2022-09-05T06:22:14.773Z,17.00
2022-09-05T06:25:21.817Z,17.10
2022-09-05T06:28:18.751Z,17.20
2022-09-05T06:31:29.580Z,17.30
2022-09-05T06:34:32.654Z,17.40
2022-09-05T06:37:25.761Z,17.50
2022-09-05T06:40:28.017Z,17.60
2022-09-05T06:43:24.718Z,17.70
2022-09-05T06:46:15.929Z,17.80
2022-09-05T06:49:38.722Z,18.00
2022-09-05T06:53:10.948Z,18.10
2022-09-05T06:56:25.389Z,18.20
2022-09-05T06:59:24.129Z,18.40
2022-09-05T07:02:12.189Z,18.60
2022-09-05T07:05:37.674Z,18.70
2022-09-05T07:08:36.461Z,18.90
2022-09-05T07:11:35.369Z,19.10
2022-09-05T07:14:37.878Z,19.20
2022-09-05T07:17:26.601Z,19.40
2022-09-05T07:20:01.856Z,19.60
2022-09-05T07:22:47.495Z,19.70
2022-09-05T07:25:31.628Z,19.90
2022-09-05T07:28:29.162Z,20.10
2022-09-05T07:31:06.990Z,20.30
2022-09-05T07:33:39.776Z,20.50
2022-09-05T07:36:19.197Z,20.60
2022-09-05T07:39:02.346Z,20.80
2022-09-05T07:41:42.250Z,21.00
2022-09-05T07:44:34.591Z,21.10
2022-09-05T07:47:42.623Z,21.30
2022-09-05T07:54:06.032Z,21.50
2022-09-05T07:57:01.852Z,21.90
2022-09-05T07:57:06.383Z,21.70
2022-09-05T07:58:53.080Z,22.10
2022-09-05T08:01:22.752Z,22.30
2022-09-05T08:03:56.034Z,22.50
2022-09-05T08:06:41.488Z,22.70
2022-09-05T08:10:05.995Z,23.00
2022-09-05T08:13:23.773Z,23.20
2022-09-05T08:15:39.694Z,23.50
2022-09-05T08:18:42.684Z,23.70
2022-09-05T08:21:28.149Z,23.90
2022-09-05T08:24:24.851Z,24.10
2022-09-05T08:27:16.474Z,24.30
2022-09-05T08:30:26.823Z,24.50
2022-09-05T08:33:22.049Z,24.80
2022-09-05T08:36:05.025Z,25.00
2022-09-05T08:38:38.758Z,25.20
2022-09-05T08:41:17.418Z,25.40
2022-09-05T08:46:40.242Z,25.60
2022-09-05T08:47:25.212Z,25.80
2022-09-05T08:50:26.865Z,26.00
2022-09-05T08:53:32.519Z,26.20
2022-09-05T08:56:10.293Z,26.40
2022-09-05T08:59:27.531Z,26.60
2022-09-05T09:02:47.332Z,26.70
2022-09-05T09:06:12.121Z,26.90
2022-09-05T09:09:10.953Z,27.10
2022-09-05T09:11:45.220Z,27.30
2022-09-05T09:14:31.825Z,27.40
2022-09-05T09:17:34.494Z,27.60
2022-09-05T09:20:31.190Z,27.80
2022-09-05T09:23:38.984Z,28.00
2022-09-05T09:26:15.784Z,28.20
2022-09-05T09:29:08.122Z,28.30
2022-09-05T09:31:56.212Z,28.50
2022-09-05T09:34:45.734Z,28.60
2022-09-05T09:37:50.684Z,28.80
2022-09-05T09:41:09.129Z,29.00
2022-09-05T09:44:08.652Z,29.20
2022-09-05T09:46:50.670Z,29.40
2022-09-05T09:49:54.833Z,29.50
2022-09-05T09:53:06.816Z,29.60
2022-09-05T09:56:13.337Z,29.60
2022-09-05T09:59:23.897Z,29.60
2022-09-05T10:04:31.330Z,29.50
2022-09-05T10:10:40.320Z,29.50
2022-09-05T10:11:07.996Z,29.50
2022-09-05T10:13:15.353Z,29.60
2022-09-05T10:16:27.644Z,29.70
2022-09-05T10:22:59.262Z,30.00
2022-09-05T10:26:01.292Z,30.10
2022-09-05T10:29:36.647Z,30.10
2022-09-05T10:35:05.712Z,30.20
2022-09-05T10:35:24.633Z,30.20
2022-09-05T10:38:04.371Z,30.20
2022-09-05T10:41:14.617Z,30.30
2022-09-05T10:43:36.104Z,30.40
2022-09-05T10:46:10.351Z,30.50
2022-09-05T10:48:53.592Z,30.60
2022-09-05T10:51:37.746Z,30.60
2022-09-05T10:55:14.747Z,30.70
2022-09-05T10:58:35.289Z,30.80
2022-09-05T11:02:20.978Z,30.90
2022-09-05T11:05:12.820Z,30.90
2022-09-05T11:08:09.882Z,31.00
2022-09-05T11:11:26.078Z,31.00
2022-09-05T11:14:26.828Z,31.20
2022-09-05T11:17:10.107Z,31.20
2022-09-05T11:19:55.298Z,31.20
2022-09-05T11:22:28.452Z,31.20
2022-09-05T11:25:15.020Z,31.20
2022-09-05T11:27:53.388Z,31.30
2022-09-05T11:30:30.009Z,31.30
2022-09-05T11:39:50.313Z,31.20
2022-09-05T11:40:00.057Z,31.20
2022-09-05T11:40:28.870Z,31.20
2022-09-05T11:43:28.869Z,31.10
2022-09-05T11:46:38.854Z,31.00
2022-09-05T11:49:37.071Z,31.00
2022-09-05T11:52:22.071Z,30.90
2022-09-05T11:55:32.993Z,30.90
2022-09-05T11:58:43.522Z,30.90
2022-09-05T12:02:24.120Z,30.90
2022-09-05T12:05:49.348Z,31.00
2022-09-05T12:08:35.165Z,31.10
2022-09-05T12:11:52.056Z,31.20
2022-09-05T12:15:04.394Z,31.30
2022-09-05T12:18:03.612Z,31.40
2022-09-05T12:21:00.728Z,31.60
2022-09-05T12:25:15.499Z,31.70
2022-09-05T12:27:40.624Z,31.80
2022-09-05T12:30:03.824Z,31.90
2022-09-05T12:33:50.757Z,32.00
2022-09-05T12:36:07.610Z,32.10
2022-09-05T12:40:58.518Z,32.20
2022-09-05T12:42:13.889Z,32.30
2022-09-05T12:44:46.550Z,32.30
2022-09-05T12:47:21.173Z,32.40
2022-09-05T12:50:14.931Z,32.30
2022-09-05T12:52:52.162Z,32.30
2022-09-05T12:55:33.725Z,32.30
2022-09-05T13:03:01.949Z,32.20
2022-09-05T13:03:03.263Z,32.30
2022-09-05T13:04:27.161Z,32.20
2022-09-05T13:07:11.920Z,32.20
2022-09-05T13:11:54.389Z,32.20
2022-09-05T13:15:01.966Z,32.30
2022-09-05T13:15:52.270Z,32.40
2022-09-05T13:18:30.757Z,32.50
2022-09-05T13:21:23.054Z,32.50
2022-09-05T13:24:12.062Z,32.60
2022-09-05T13:26:52.062Z,32.80
2022-09-05T13:29:25.323Z,32.90
2022-09-05T13:38:03.158Z,33.00
2022-09-05T13:38:12.951Z,33.10
2022-09-05T13:38:47.496Z,33.30
2022-09-05T13:41:28.308Z,33.40
2022-09-05T13:44:00.266Z,33.50
2022-09-05T13:47:29.995Z,33.60
2022-09-05T13:50:30.873Z,33.70
2022-09-05T13:53:27.403Z,33.70
2022-09-05T13:56:13.123Z,33.80
2022-09-05T13:58:54.426Z,33.80
2022-09-05T14:02:29.105Z,33.70
2022-09-05T14:05:20.828Z,33.60
2022-09-05T14:08:33.679Z,33.50
2022-09-05T14:11:45.002Z,33.50
2022-09-05T14:20:28.627Z,33.50
2022-09-05T14:23:07.639Z,33.50
2022-09-05T14:25:40.464Z,33.50
2022-09-05T14:28:38.577Z,33.60
2022-09-05T14:35:23.487Z,33.60
2022-09-05T14:37:39.023Z,33.70
2022-09-05T14:38:14.524Z,33.70
2022-09-05T14:41:44.193Z,33.70
2022-09-05T14:44:46.486Z,33.70
2022-09-05T14:47:40.655Z,33.70
2022-09-05T14:50:49.536Z,33.70
2022-09-05T14:56:46.462Z,33.70
2022-09-05T15:02:51.033Z,33.70
2022-09-05T15:03:00.244Z,33.60
2022-09-05T15:05:28.752Z,33.70
2022-09-05T15:09:50.893Z,33.60
2022-09-05T15:12:16.422Z,33.70
2022-09-05T15:14:10.001Z,33.70
2022-09-05T15:16:43.588Z,33.70
2022-09-05T15:19:11.798Z,33.70
2022-09-05T15:21:41.282Z,33.70
2022-09-05T15:24:30.180Z,33.60
2022-09-05T15:27:02.595Z,33.60
2022-09-05T15:29:35.439Z,33.60
2022-09-05T15:32:26.259Z,33.50
2022-09-05T15:34:59.071Z,33.40
2022-09-05T15:37:43.086Z,33.30
2022-09-05T15:40:22.590Z,33.20
2022-09-05T15:43:02.001Z,33.30
2022-09-05T15:45:35.134Z,33.20
2022-09-05T15:48:26.473Z,33.10
2022-09-05T15:51:17.281Z,33.10
2022-09-05T15:53:44.360Z,33.10
2022-09-05T15:56:11.233Z,33.00
2022-09-05T15:58:56.405Z,33.00
2022-09-05T16:01:59.006Z,32.90
2022-09-05T16:10:27.773Z,32.90
2022-09-05T16:10:40.242Z,32.80
2022-09-05T16:10:57.378Z,32.70
2022-09-05T16:13:17.788Z,32.70
2022-09-05T16:21:49.742Z,32.60
2022-09-05T16:23:26.017Z,32.50
2022-09-05T16:23:26.564Z,32.50
2022-09-05T16:24:57.908Z,32.40
2022-09-05T16:28:02.985Z,32.30
2022-09-05T16:30:36.282Z,32.30
2022-09-05T16:33:19.274Z,32.20
2022-09-05T16:36:04.686Z,32.20
2022-09-05T16:38:55.513Z,32.10
2022-09-05T16:41:46.951Z,32.00
2022-09-05T16:44:54.530Z,31.90
2022-09-05T16:47:27.634Z,31.90
2022-09-05T16:50:34.239Z,31.70
2022-09-05T16:53:47.415Z,31.60
2022-09-05T16:56:41.513Z,31.50
2022-09-05T16:59:26.624Z,31.40
2022-09-05T17:02:27.838Z,31.30
2022-09-05T17:05:43.566Z,31.10
2022-09-05T17:08:29.730Z,31.00
2022-09-05T17:11:12.249Z,30.90
2022-09-05T17:13:57.444Z,30.70
2022-09-05T17:16:41.393Z,30.60
2022-09-05T17:19:22.384Z,30.50
2022-09-05T17:24:02.088Z,30.30
2022-09-05T17:29:34.130Z,30.00
2022-09-05T17:29:37.962Z,30.10
2022-09-05T17:31:50.866Z,29.90
2022-09-05T17:33:45.647Z,29.80
2022-09-05T17:36:22.274Z,29.70
2022-09-05T17:39:44.333Z,29.50
2022-09-05T17:42:34.211Z,29.40
2022-09-05T17:45:44.940Z,29.20
2022-09-05T17:48:36.305Z,29.10
2022-09-05T17:51:03.375Z,29.00
2022-09-05T17:53:33.349Z,28.90
2022-09-05T17:56:01.359Z,28.80
2022-09-05T17:58:49.521Z,28.70
2022-09-05T18:01:26.634Z,28.60
2022-09-05T18:04:16.035Z,28.50
2022-09-05T18:06:59.563Z,28.40
2022-09-05T18:09:37.137Z,28.30
2022-09-05T18:13:12.599Z,28.10
2022-09-05T18:15:29.563Z,28.00
2022-09-05T18:18:42.304Z,27.90
2022-09-05T18:21:21.693Z,27.80
2022-09-05T18:24:05.289Z,27.60
2022-09-05T18:26:46.194Z,27.50
2022-09-05T18:29:58.025Z,27.40
2022-09-05T18:32:54.189Z,27.20
2022-09-05T18:36:25.745Z,27.10
2022-09-05T18:39:23.232Z,26.90
2022-09-05T18:42:26.094Z,26.80
2022-09-05T18:45:14.644Z,26.70
2022-09-05T18:47:59.112Z,26.60
2022-09-05T18:50:35.187Z,26.50
2022-09-05T18:53:10.421Z,26.40
2022-09-05T18:56:13.054Z,26.30
2022-09-05T18:59:24.186Z,26.20
2022-09-05T19:02:44.174Z,26.10
2022-09-05T19:05:16.879Z,26.00
2022-09-05T19:07:50.191Z,25.90
2022-09-05T19:10:34.603Z,25.80
2022-09-05T19:13:23.943Z,25.70
2022-09-05T19:16:34.910Z,25.60
2022-09-05T19:19:18.617Z,25.50
2022-09-05T19:21:56.256Z,25.40
2022-09-05T19:24:44.780Z,25.40
2022-09-05T19:27:16.178Z,25.30
2022-09-05T19:36:54.642Z,25.00
2022-09-05T19:36:55.836Z,24.90
2022-09-05T19:37:14.646Z,25.20
2022-09-05T19:40:20.507Z,24.90
2022-09-05T19:47:34.344Z,24.70
2022-09-05T19:47:39.302Z,24.60
2022-09-05T19:50:29.944Z,24.50
2022-09-05T19:53:07.214Z,24.40
2022-09-05T19:55:37.864Z,24.30
2022-09-05T19:58:18.871Z,24.20
2022-09-05T20:01:01.261Z,24.10
2022-09-05T20:03:39.376Z,24.00
2022-09-05T20:06:29.917Z,23.90
2022-09-05T20:09:30.188Z,23.80
2022-09-05T20:11:59.737Z,23.80
2022-09-05T20:14:36.548Z,23.70
2022-09-05T20:17:28.705Z,23.60
2022-09-05T20:20:09.151Z,23.50
2022-09-05T20:22:48.535Z,23.50
2022-09-05T20:25:39.894Z,23.30
2022-09-05T20:28:17.884Z,23.30
2022-09-05T20:30:50.841Z,23.20
2022-09-05T20:33:51.976Z,23.10
2022-09-05T20:40:16.622Z,23.00
2022-09-05T20:43:22.130Z,23.00
2022-09-05T20:43:35.415Z,22.90
2022-09-05T20:46:05.253Z,22.80
2022-09-05T20:54:20.747Z,22.70
2022-09-05T20:54:21.532Z,22.70
2022-09-05T20:54:36.086Z,22.60
2022-09-05T20:57:23.186Z,22.50
2022-09-05T20:59:50.104Z,22.40
2022-09-05T21:02:27.893Z,22.30
2022-09-05T21:05:06.745Z,22.20
2022-09-05T21:07:59.233Z,22.20
2022-09-05T21:10:55.060Z,22.10
2022-09-05T21:13:51.860Z,22.00
2022-09-05T21:16:27.037Z,21.90
2022-09-05T21:18:54.130Z,21.90
2022-09-05T21:21:32.185Z,21.80
2022-09-05T21:24:15.878Z,21.70
2022-09-05T21:26:49.889Z,21.60
2022-09-05T21:29:26.481Z,21.60
2022-09-05T21:32:02.427Z,21.60
2022-09-05T21:34:45.247Z,21.50
2022-09-05T21:37:15.770Z,21.50
2022-09-05T21:40:00.144Z,21.40
2022-09-05T21:45:38.505Z,21.30
2022-09-05T21:47:49.163Z,21.30
2022-09-05T21:48:15.757Z,21.20
2022-09-05T21:50:49.615Z,21.10
2022-09-05T21:55:14.806Z,21.00
2022-09-05T21:59:18.012Z,21.00
2022-09-05T21:59:41.577Z,21.00
2022-09-05T22:02:13.456Z,20.90
2022-09-05T22:04:41.711Z,20.90
2022-09-05T22:07:19.589Z,20.90
2022-09-05T22:09:59.025Z,20.80
2022-09-05T22:12:36.717Z,20.80
2022-09-05T22:15:28.881Z,20.70
2022-09-05T22:18:16.537Z,20.70
2022-09-05T22:21:17.486Z,20.60
2022-09-05T22:23:39.529Z,20.60
2022-09-05T22:26:06.815Z,20.60
2022-09-05T22:28:38.243Z,20.50
2022-09-05T22:31:07.857Z,20.50
2022-09-05T22:33:35.874Z,20.40
2022-09-05T22:36:03.538Z,20.40
2022-09-05T22:38:30.702Z,20.30
2022-09-05T22:40:57.624Z,20.30
2022-09-05T22:43:25.619Z,20.20
2022-09-05T22:45:56.221Z,20.20
2022-09-05T22:48:24.131Z,20.20
2022-09-05T22:50:51.131Z,20.10
2022-09-05T22:53:18.477Z,20.10
2022-09-05T22:55:45.359Z,20.00
2022-09-05T22:58:15.134Z,20.00
2022-09-05T23:00:44.474Z,19.90
2022-09-05T23:03:11.507Z,19.90
2022-09-05T23:05:39.236Z,19.90
2022-09-05T23:08:06.786Z,19.80
2022-09-05T23:10:35.477Z,19.80
2022-09-05T23:13:10.319Z,19.70
2022-09-05T23:15:37.987Z,19.70
2022-09-05T23:18:05.672Z,19.70
2022-09-05T23:20:33.965Z,19.60
2022-09-05T23:23:05.554Z,19.60
2022-09-05T23:25:34.035Z,19.60
2022-09-05T23:28:09.277Z,19.60
2022-09-05T23:30:38.359Z,19.50
2022-09-05T23:33:08.088Z,19.50
2022-09-05T23:35:36.492Z,19.50
2022-09-05T23:38:09.050Z,19.50
2022-09-05T23:40:36.083Z,19.50
2022-09-05T23:43:04.085Z,19.50
2022-09-05T23:45:31.676Z,19.50
2022-09-05T23:47:59.421Z,19.40
2022-09-05T23:50:28.385Z,19.40
2022-09-05T23:52:55.503Z,19.40
2022-09-05T23:55:23.377Z,19.40
2022-09-05T23:57:57.156Z,19.40
